sensor_id;sensor_type;location;lat;lon;timestamp;P1;durP1;ratioP1;P2;durP2;ratioP2
79377;SDS011;68959;53.132;17.984;2023-04-03T00:01:17;8.40;;;2.10;;
79377;SDS011;68959;53.132;17.984;2023-04-03T00:03:44;4.70;;;2.20;;
79377;SDS011;68959;53.132;17.984;2023-04-03T00:06:11;11.40;;;2.10;;
79377;SDS011;68959;53.132;17.984;2023-04-03T00:08:38;9.20;;;2.10;;
79377;SDS011;68959;53.132;17.984;2023-04-03T00:11:06;6.50;;;2.30;;
79377;SDS011;68959;53.132;17.984;2023-04-03T00:13:34;4.90;;;1.60;;
79377;SDS011;68959;53.132;17.984;2023-04-03T00:16:01;7.40;;;2.10;;
79377;SDS011;68959;53.132;17.984;2023-04-03T00:18:29;7.90;;;2.20;;
79377;SDS011;68959;53.132;17.984;2023-04-03T00:20:57;6.70;;;2.10;;
79377;SDS011;68959;53.132;17.984;2023-04-03T00:23:24;6.80;;;2.20;;
79377;SDS011;68959;53.132;17.984;2023-04-03T00:25:51;6.00;;;2.40;;
79377;SDS011;68959;53.132;17.984;2023-04-03T00:28:18;10.10;;;3.70;;
79377;SDS011;68959;53.132;17.984;2023-04-03T00:30:48;16.10;;;3.60;;
79377;SDS011;68959;53.132;17.984;2023-04-03T00:33:16;9.30;;;3.70;;
79377;SDS011;68959;53.132;17.984;2023-04-03T00:35:43;9.70;;;3.80;;
79377;SDS011;68959;53.132;17.984;2023-04-03T00:38:09;6.50;;;2.40;;
79377;SDS011;68959;53.132;17.984;2023-04-03T00:40:38;7.10;;;2.20;;
79377;SDS011;68959;53.132;17.984;2023-04-03T00:43:19;11.60;;;2.60;;
79377;SDS011;68959;53.132;17.984;2023-04-03T00:45:49;5.10;;;1.90;;
79377;SDS011;68959;53.132;17.984;2023-04-03T00:48:22;6.30;;;1.80;;
79377;SDS011;68959;53.132;17.984;2023-04-03T00:50:57;5.60;;;2.20;;
79377;SDS011;68959;53.132;17.984;2023-04-03T00:53:27;5.40;;;2.20;;
79377;SDS011;68959;53.132;17.984;2023-04-03T00:55:57;8.30;;;3.00;;
79377;SDS011;68959;53.132;17.984;2023-04-03T00:58:28;10.50;;;2.70;;
79377;SDS011;68959;53.132;17.984;2023-04-03T01:01:00;8.40;;;2.40;;
79377;SDS011;68959;53.132;17.984;2023-04-03T01:03:31;5.10;;;1.90;;
79377;SDS011;68959;53.132;17.984;2023-04-03T01:05:59;8.00;;;2.80;;
79377;SDS011;68959;53.132;17.984;2023-04-03T01:08:26;9.20;;;2.70;;
79377;SDS011;68959;53.132;17.984;2023-04-03T01:10:53;7.10;;;2.50;;
79377;SDS011;68959;53.132;17.984;2023-04-03T01:13:25;4.90;;;2.10;;
79377;SDS011;68959;53.132;17.984;2023-04-03T01:15:55;9.00;;;2.70;;
79377;SDS011;68959;53.132;17.984;2023-04-03T01:18:22;7.10;;;2.20;;
79377;SDS011;68959;53.132;17.984;2023-04-03T01:26:59;4.20;;;1.50;;
79377;SDS011;68959;53.132;17.984;2023-04-03T01:29:29;5.20;;;1.60;;
79377;SDS011;68959;53.132;17.984;2023-04-03T01:31:57;6.90;;;1.70;;
79377;SDS011;68959;53.132;17.984;2023-04-03T01:34:25;2.60;;;1.20;;
79377;SDS011;68959;53.132;17.984;2023-04-03T01:36:53;5.00;;;1.80;;
79377;SDS011;68959;53.132;17.984;2023-04-03T01:39:21;10.50;;;2.40;;
79377;SDS011;68959;53.132;17.984;2023-04-03T01:41:48;7.00;;;1.60;;
79377;SDS011;68959;53.132;17.984;2023-04-03T01:44:29;5.40;;;1.50;;
79377;SDS011;68959;53.132;17.984;2023-04-03T01:46:56;4.20;;;1.30;;
79377;SDS011;68959;53.132;17.984;2023-04-03T01:49:23;3.70;;;1.50;;
79377;SDS011;68959;53.132;17.984;2023-04-03T01:51:50;4.10;;;1.60;;
79377;SDS011;68959;53.132;17.984;2023-04-03T01:54:17;2.80;;;1.40;;
79377;SDS011;68959;53.132;17.984;2023-04-03T01:56:44;6.10;;;1.90;;
79377;SDS011;68959;53.132;17.984;2023-04-03T01:59:11;3.30;;;1.60;;
79377;SDS011;68959;53.132;17.984;2023-04-03T02:01:37;1.30;;;0.60;;
79377;SDS011;68959;53.132;17.984;2023-04-03T02:04:04;4.90;;;1.70;;
79377;SDS011;68959;53.132;17.984;2023-04-03T02:06:31;4.60;;;1.50;;
79377;SDS011;68959;53.132;17.984;2023-04-03T02:08:58;5.30;;;1.60;;
79377;SDS011;68959;53.132;17.984;2023-04-03T02:11:25;6.90;;;2.90;;
79377;SDS011;68959;53.132;17.984;2023-04-03T02:13:53;7.50;;;1.90;;
79377;SDS011;68959;53.132;17.984;2023-04-03T02:16:19;4.10;;;1.60;;
79377;SDS011;68959;53.132;17.984;2023-04-03T02:18:46;5.80;;;1.60;;
79377;SDS011;68959;53.132;17.984;2023-04-03T02:21:12;7.30;;;1.60;;
79377;SDS011;68959;53.132;17.984;2023-04-03T02:23:39;3.70;;;1.70;;
79377;SDS011;68959;53.132;17.984;2023-04-03T02:26:10;2.80;;;1.20;;
79377;SDS011;68959;53.132;17.984;2023-04-03T02:28:39;5.50;;;1.30;;
79377;SDS011;68959;53.132;17.984;2023-04-03T02:31:07;7.60;;;1.80;;
79377;SDS011;68959;53.132;17.984;2023-04-03T02:33:35;5.20;;;1.90;;
79377;SDS011;68959;53.132;17.984;2023-04-03T02:36:05;3.90;;;1.00;;
79377;SDS011;68959;53.132;17.984;2023-04-03T02:38:33;3.60;;;1.50;;
79377;SDS011;68959;53.132;17.984;2023-04-03T02:41:10;5.90;;;1.60;;
79377;SDS011;68959;53.132;17.984;2023-04-03T02:43:38;3.80;;;1.20;;
79377;SDS011;68959;53.132;17.984;2023-04-03T02:46:05;7.70;;;1.60;;
79377;SDS011;68959;53.132;17.984;2023-04-03T02:48:33;8.30;;;1.70;;
79377;SDS011;68959;53.132;17.984;2023-04-03T02:51:00;5.90;;;1.50;;
79377;SDS011;68959;53.132;17.984;2023-04-03T02:53:27;5.60;;;1.90;;
79377;SDS011;68959;53.132;17.984;2023-04-03T02:55:54;6.70;;;1.80;;
79377;SDS011;68959;53.132;17.984;2023-04-03T02:58:21;6.60;;;1.40;;
79377;SDS011;68959;53.132;17.984;2023-04-03T03:00:48;2.50;;;1.10;;
79377;SDS011;68959;53.132;17.984;2023-04-03T03:03:15;4.20;;;1.70;;
79377;SDS011;68959;53.132;17.984;2023-04-03T03:05:41;5.20;;;2.10;;
79377;SDS011;68959;53.132;17.984;2023-04-03T03:08:08;4.20;;;1.40;;
79377;SDS011;68959;53.132;17.984;2023-04-03T03:10:34;7.60;;;1.70;;
79377;SDS011;68959;53.132;17.984;2023-04-03T03:13:01;9.40;;;1.80;;
79377;SDS011;68959;53.132;17.984;2023-04-03T03:15:30;12.60;;;2.70;;
79377;SDS011;68959;53.132;17.984;2023-04-03T03:17:56;14.10;;;2.90;;
79377;SDS011;68959;53.132;17.984;2023-04-03T03:20:23;2.40;;;1.30;;
79377;SDS011;68959;53.132;17.984;2023-04-03T03:22:50;5.60;;;1.70;;
79377;SDS011;68959;53.132;17.984;2023-04-03T03:25:16;5.10;;;1.50;;
79377;SDS011;68959;53.132;17.984;2023-04-03T03:27:43;4.80;;;1.80;;
79377;SDS011;68959;53.132;17.984;2023-04-03T03:30:10;2.80;;;1.20;;
79377;SDS011;68959;53.132;17.984;2023-04-03T03:32:37;6.70;;;1.60;;
79377;SDS011;68959;53.132;17.984;2023-04-03T03:35:04;6.60;;;1.80;;
79377;SDS011;68959;53.132;17.984;2023-04-03T03:37:31;8.10;;;1.90;;
79377;SDS011;68959;53.132;17.984;2023-04-03T03:39:58;7.50;;;1.60;;
79377;SDS011;68959;53.132;17.984;2023-04-03T03:42:25;6.70;;;2.10;;
79377;SDS011;68959;53.132;17.984;2023-04-03T03:44:52;8.40;;;1.80;;
79377;SDS011;68959;53.132;17.984;2023-04-03T03:47:19;8.70;;;2.00;;
79377;SDS011;68959;53.132;17.984;2023-04-03T03:49:46;11.10;;;2.50;;
79377;SDS011;68959;53.132;17.984;2023-04-03T03:52:13;4.20;;;1.30;;
79377;SDS011;68959;53.132;17.984;2023-04-03T03:54:40;5.60;;;1.80;;
79377;SDS011;68959;53.132;17.984;2023-04-03T03:57:07;5.50;;;1.70;;
79377;SDS011;68959;53.132;17.984;2023-04-03T03:59:34;7.90;;;2.20;;
79377;SDS011;68959;53.132;17.984;2023-04-03T04:02:01;5.40;;;1.60;;
79377;SDS011;68959;53.132;17.984;2023-04-03T04:04:28;3.00;;;1.50;;
79377;SDS011;68959;53.132;17.984;2023-04-03T04:06:55;4.70;;;1.40;;
79377;SDS011;68959;53.132;17.984;2023-04-03T04:09:22;4.90;;;1.70;;
79377;SDS011;68959;53.132;17.984;2023-04-03T04:11:49;4.00;;;1.60;;
79377;SDS011;68959;53.132;17.984;2023-04-03T04:14:16;4.90;;;1.50;;
79377;SDS011;68959;53.132;17.984;2023-04-03T04:16:43;5.10;;;1.70;;
79377;SDS011;68959;53.132;17.984;2023-04-03T04:19:14;7.00;;;2.30;;
79377;SDS011;68959;53.132;17.984;2023-04-03T04:21:41;4.70;;;2.00;;
79377;SDS011;68959;53.132;17.984;2023-04-03T04:24:08;8.90;;;2.30;;
79377;SDS011;68959;53.132;17.984;2023-04-03T04:26:35;10.10;;;2.70;;
79377;SDS011;68959;53.132;17.984;2023-04-03T04:29:02;9.50;;;3.00;;
79377;SDS011;68959;53.132;17.984;2023-04-03T04:31:31;8.80;;;2.70;;
79377;SDS011;68959;53.132;17.984;2023-04-03T04:33:58;8.00;;;2.70;;
79377;SDS011;68959;53.132;17.984;2023-04-03T04:36:25;8.70;;;3.20;;
79377;SDS011;68959;53.132;17.984;2023-04-03T04:38:52;15.20;;;3.50;;
79377;SDS011;68959;53.132;17.984;2023-04-03T04:41:20;12.00;;;3.80;;
79377;SDS011;68959;53.132;17.984;2023-04-03T04:43:49;12.80;;;4.10;;
79377;SDS011;68959;53.132;17.984;2023-04-03T04:46:16;15.30;;;3.80;;
79377;SDS011;68959;53.132;17.984;2023-04-03T04:51:15;13.00;;;3.80;;
79377;SDS011;68959;53.132;17.984;2023-04-03T04:53:42;15.00;;;3.50;;
79377;SDS011;68959;53.132;17.984;2023-04-03T04:56:10;13.00;;;3.70;;
79377;SDS011;68959;53.132;17.984;2023-04-03T04:58:38;11.30;;;4.00;;
79377;SDS011;68959;53.132;17.984;2023-04-03T05:01:06;12.80;;;4.10;;
79377;SDS011;68959;53.132;17.984;2023-04-03T05:03:36;9.00;;;3.80;;
79377;SDS011;68959;53.132;17.984;2023-04-03T05:06:03;16.10;;;3.90;;
79377;SDS011;68959;53.132;17.984;2023-04-03T05:08:31;12.90;;;3.20;;
79377;SDS011;68959;53.132;17.984;2023-04-03T05:10:58;14.20;;;3.80;;
79377;SDS011;68959;53.132;17.984;2023-04-03T05:13:26;24.50;;;4.20;;
79377;SDS011;68959;53.132;17.984;2023-04-03T05:15:53;10.70;;;3.50;;
79377;SDS011;68959;53.132;17.984;2023-04-03T05:18:20;11.00;;;4.20;;
79377;SDS011;68959;53.132;17.984;2023-04-03T05:20:48;19.70;;;4.00;;
79377;SDS011;68959;53.132;17.984;2023-04-03T05:23:17;10.70;;;3.00;;
79377;SDS011;68959;53.132;17.984;2023-04-03T05:25:45;7.50;;;2.40;;
79377;SDS011;68959;53.132;17.984;2023-04-03T05:28:13;5.00;;;2.10;;
79377;SDS011;68959;53.132;17.984;2023-04-03T05:30:41;3.30;;;1.70;;
79377;SDS011;68959;53.132;17.984;2023-04-03T05:33:08;10.30;;;2.30;;
79377;SDS011;68959;53.132;17.984;2023-04-03T05:35:40;9.50;;;1.90;;
79377;SDS011;68959;53.132;17.984;2023-04-03T05:38:08;4.50;;;1.60;;
79377;SDS011;68959;53.132;17.984;2023-04-03T05:40:35;5.70;;;3.40;;
79377;SDS011;68959;53.132;17.984;2023-04-03T05:43:02;5.80;;;2.80;;
79377;SDS011;68959;53.132;17.984;2023-04-03T05:45:32;9.90;;;2.40;;
79377;SDS011;68959;53.132;17.984;2023-04-03T05:47:59;6.60;;;2.70;;
79377;SDS011;68959;53.132;17.984;2023-04-03T05:50:26;9.70;;;1.80;;
79377;SDS011;68959;53.132;17.984;2023-04-03T05:52:55;3.50;;;1.50;;
79377;SDS011;68959;53.132;17.984;2023-04-03T05:55:25;6.50;;;1.20;;
79377;SDS011;68959;53.132;17.984;2023-04-03T05:57:52;5.80;;;1.60;;
79377;SDS011;68959;53.132;17.984;2023-04-03T06:00:19;2.40;;;1.60;;
79377;SDS011;68959;53.132;17.984;2023-04-03T06:02:49;7.80;;;1.80;;
79377;SDS011;68959;53.132;17.984;2023-04-03T06:05:19;2.90;;;1.40;;
79377;SDS011;68959;53.132;17.984;2023-04-03T06:07:46;14.90;;;2.60;;
79377;SDS011;68959;53.132;17.984;2023-04-03T06:10:12;5.90;;;2.10;;
79377;SDS011;68959;53.132;17.984;2023-04-03T06:12:39;5.80;;;1.80;;
79377;SDS011;68959;53.132;17.984;2023-04-03T06:15:07;5.00;;;1.50;;
79377;SDS011;68959;53.132;17.984;2023-04-03T06:17:36;4.00;;;1.60;;
79377;SDS011;68959;53.132;17.984;2023-04-03T06:20:04;3.60;;;1.80;;
79377;SDS011;68959;53.132;17.984;2023-04-03T06:22:31;5.30;;;2.20;;
79377;SDS011;68959;53.132;17.984;2023-04-03T06:24:58;6.80;;;2.30;;
79377;SDS011;68959;53.132;17.984;2023-04-03T06:27:24;8.10;;;2.10;;
79377;SDS011;68959;53.132;17.984;2023-04-03T06:29:51;6.80;;;2.50;;
79377;SDS011;68959;53.132;17.984;2023-04-03T06:32:18;5.90;;;2.60;;
79377;SDS011;68959;53.132;17.984;2023-04-03T06:34:44;8.10;;;3.30;;
79377;SDS011;68959;53.132;17.984;2023-04-03T06:37:15;7.80;;;3.70;;
79377;SDS011;68959;53.132;17.984;2023-04-03T06:39:46;6.00;;;2.00;;
79377;SDS011;68959;53.132;17.984;2023-04-03T06:42:13;6.20;;;2.30;;
79377;SDS011;68959;53.132;17.984;2023-04-03T06:44:47;5.00;;;2.20;;
79377;SDS011;68959;53.132;17.984;2023-04-03T06:47:14;10.80;;;2.60;;
79377;SDS011;68959;53.132;17.984;2023-04-03T06:49:43;6.80;;;2.30;;
79377;SDS011;68959;53.132;17.984;2023-04-03T06:52:10;5.90;;;2.00;;
79377;SDS011;68959;53.132;17.984;2023-04-03T06:54:38;7.30;;;2.10;;
79377;SDS011;68959;53.132;17.984;2023-04-03T06:57:07;8.80;;;2.20;;
79377;SDS011;68959;53.132;17.984;2023-04-03T06:59:34;5.10;;;1.90;;
79377;SDS011;68959;53.132;17.984;2023-04-03T07:02:02;9.10;;;2.00;;
79377;SDS011;68959;53.132;17.984;2023-04-03T07:04:30;8.10;;;2.10;;
79377;SDS011;68959;53.132;17.984;2023-04-03T07:06:57;8.70;;;2.00;;
79377;SDS011;68959;53.132;17.984;2023-04-03T07:09:23;7.30;;;2.50;;
79377;SDS011;68959;53.132;17.984;2023-04-03T07:11:50;7.50;;;2.20;;
79377;SDS011;68959;53.132;17.984;2023-04-03T07:14:17;7.80;;;2.40;;
79377;SDS011;68959;53.132;17.984;2023-04-03T07:16:44;6.10;;;1.70;;
79377;SDS011;68959;53.132;17.984;2023-04-03T07:19:10;4.90;;;1.90;;
79377;SDS011;68959;53.132;17.984;2023-04-03T07:21:37;9.90;;;1.90;;
79377;SDS011;68959;53.132;17.984;2023-04-03T07:24:04;4.50;;;2.10;;
79377;SDS011;68959;53.132;17.984;2023-04-03T07:26:30;7.50;;;2.80;;
79377;SDS011;68959;53.132;17.984;2023-04-03T07:28:57;6.80;;;2.80;;
79377;SDS011;68959;53.132;17.984;2023-04-03T07:31:24;4.30;;;2.10;;
79377;SDS011;68959;53.132;17.984;2023-04-03T07:33:51;3.80;;;2.10;;
79377;SDS011;68959;53.132;17.984;2023-04-03T07:36:19;9.30;;;2.60;;
79377;SDS011;68959;53.132;17.984;2023-04-03T07:38:47;6.10;;;2.00;;
79377;SDS011;68959;53.132;17.984;2023-04-03T07:41:14;5.60;;;2.10;;
79377;SDS011;68959;53.132;17.984;2023-04-03T07:43:44;8.70;;;2.60;;
79377;SDS011;68959;53.132;17.984;2023-04-03T07:46:11;6.80;;;2.70;;
79377;SDS011;68959;53.132;17.984;2023-04-03T07:48:38;8.00;;;2.00;;
79377;SDS011;68959;53.132;17.984;2023-04-03T07:51:05;11.90;;;2.70;;
79377;SDS011;68959;53.132;17.984;2023-04-03T07:53:32;6.70;;;2.00;;
79377;SDS011;68959;53.132;17.984;2023-04-03T07:55:59;6.20;;;2.40;;
79377;SDS011;68959;53.132;17.984;2023-04-03T07:58:26;6.80;;;2.60;;
79377;SDS011;68959;53.132;17.984;2023-04-03T08:00:53;5.40;;;2.00;;
79377;SDS011;68959;53.132;17.984;2023-04-03T08:03:19;3.00;;;1.50;;
79377;SDS011;68959;53.132;17.984;2023-04-03T08:05:47;5.70;;;2.00;;
79377;SDS011;68959;53.132;17.984;2023-04-03T08:08:16;6.50;;;2.00;;
79377;SDS011;68959;53.132;17.984;2023-04-03T08:10:50;5.90;;;2.20;;
79377;SDS011;68959;53.132;17.984;2023-04-03T08:13:20;6.30;;;2.00;;
79377;SDS011;68959;53.132;17.984;2023-04-03T08:15:48;7.70;;;2.10;;
79377;SDS011;68959;53.132;17.984;2023-04-03T08:18:15;5.80;;;2.00;;
79377;SDS011;68959;53.132;17.984;2023-04-03T08:20:42;2.80;;;1.80;;
79377;SDS011;68959;53.132;17.984;2023-04-03T08:23:10;4.40;;;2.20;;
79377;SDS011;68959;53.132;17.984;2023-04-03T08:25:38;5.10;;;2.40;;
79377;SDS011;68959;53.132;17.984;2023-04-03T08:28:06;5.00;;;1.90;;
79377;SDS011;68959;53.132;17.984;2023-04-03T08:30:33;8.80;;;2.10;;
79377;SDS011;68959;53.132;17.984;2023-04-03T08:33:01;4.90;;;2.30;;
79377;SDS011;68959;53.132;17.984;2023-04-03T08:35:28;6.90;;;3.00;;
79377;SDS011;68959;53.132;17.984;2023-04-03T08:37:55;7.70;;;2.50;;
79377;SDS011;68959;53.132;17.984;2023-04-03T08:40:22;5.60;;;3.00;;
79377;SDS011;68959;53.132;17.984;2023-04-03T08:42:57;6.40;;;2.40;;
79377;SDS011;68959;53.132;17.984;2023-04-03T08:50:51;4.00;;;2.10;;
79377;SDS011;68959;53.132;17.984;2023-04-03T08:53:26;5.40;;;2.30;;
79377;SDS011;68959;53.132;17.984;2023-04-03T08:55:58;3.90;;;2.10;;
79377;SDS011;68959;53.132;17.984;2023-04-03T08:58:33;4.60;;;2.00;;
79377;SDS011;68959;53.132;17.984;2023-04-03T09:01:17;4.60;;;2.40;;
79377;SDS011;68959;53.132;17.984;2023-04-03T09:06:14;6.60;;;2.50;;
79377;SDS011;68959;53.132;17.984;2023-04-03T09:08:51;6.40;;;2.40;;
79377;SDS011;68959;53.132;17.984;2023-04-03T09:11:22;12.10;;;2.50;;
79377;SDS011;68959;53.132;17.984;2023-04-03T09:14:01;3.30;;;2.00;;
79377;SDS011;68959;53.132;17.984;2023-04-03T09:16:48;6.60;;;2.60;;
79377;SDS011;68959;53.132;17.984;2023-04-03T09:19:35;6.90;;;2.40;;
79377;SDS011;68959;53.132;17.984;2023-04-03T09:22:24;8.10;;;2.50;;
79377;SDS011;68959;53.132;17.984;2023-04-03T09:24:57;6.30;;;2.00;;
79377;SDS011;68959;53.132;17.984;2023-04-03T09:27:28;6.70;;;2.30;;
79377;SDS011;68959;53.132;17.984;2023-04-03T09:29:55;9.40;;;1.90;;
79377;SDS011;68959;53.132;17.984;2023-04-03T09:32:30;3.60;;;2.20;;
79377;SDS011;68959;53.132;17.984;2023-04-03T09:35:34;4.90;;;2.00;;
79377;SDS011;68959;53.132;17.984;2023-04-03T09:38:00;7.60;;;2.10;;
79377;SDS011;68959;53.132;17.984;2023-04-03T09:41:24;6.10;;;2.60;;
79377;SDS011;68959;53.132;17.984;2023-04-03T09:43:41;6.50;;;2.30;;
79377;SDS011;68959;53.132;17.984;2023-04-03T09:46:31;4.60;;;2.50;;
79377;SDS011;68959;53.132;17.984;2023-04-03T09:49:01;4.90;;;2.30;;
79377;SDS011;68959;53.132;17.984;2023-04-03T09:51:30;3.80;;;1.70;;
79377;SDS011;68959;53.132;17.984;2023-04-03T09:53:57;8.30;;;2.20;;
79377;SDS011;68959;53.132;17.984;2023-04-03T09:56:26;3.80;;;1.80;;
79377;SDS011;68959;53.132;17.984;2023-04-03T10:04:03;5.00;;;1.80;;
79377;SDS011;68959;53.132;17.984;2023-04-03T10:06:41;4.60;;;1.90;;
79377;SDS011;68959;53.132;17.984;2023-04-03T10:09:19;7.50;;;2.50;;
79377;SDS011;68959;53.132;17.984;2023-04-03T10:14:35;6.00;;;1.90;;
79377;SDS011;68959;53.132;17.984;2023-04-03T10:18:18;4.50;;;1.90;;
79377;SDS011;68959;53.132;17.984;2023-04-03T10:20:34;4.70;;;1.80;;
79377;SDS011;68959;53.132;17.984;2023-04-03T10:28:30;8.00;;;2.50;;
79377;SDS011;68959;53.132;17.984;2023-04-03T10:34:04;5.90;;;2.10;;
79377;SDS011;68959;53.132;17.984;2023-04-03T10:39:12;4.70;;;1.80;;
79377;SDS011;68959;53.132;17.984;2023-04-03T10:47:54;3.00;;;1.50;;
79377;SDS011;68959;53.132;17.984;2023-04-03T10:50:43;5.90;;;1.70;;
79377;SDS011;68959;53.132;17.984;2023-04-03T10:53:36;3.40;;;1.90;;
79377;SDS011;68959;53.132;17.984;2023-04-03T10:59:05;10.30;;;2.30;;
79377;SDS011;68959;53.132;17.984;2023-04-03T11:01:43;7.10;;;2.20;;
79377;SDS011;68959;53.132;17.984;2023-04-03T11:04:12;6.50;;;1.70;;
79377;SDS011;68959;53.132;17.984;2023-04-03T11:06:44;6.20;;;1.90;;
79377;SDS011;68959;53.132;17.984;2023-04-03T11:09:20;4.80;;;1.70;;
79377;SDS011;68959;53.132;17.984;2023-04-03T11:11:53;7.60;;;2.50;;
79377;SDS011;68959;53.132;17.984;2023-04-03T11:14:26;9.10;;;2.10;;
79377;SDS011;68959;53.132;17.984;2023-04-03T11:16:59;6.50;;;1.60;;
79377;SDS011;68959;53.132;17.984;2023-04-03T11:19:47;3.70;;;1.70;;
79377;SDS011;68959;53.132;17.984;2023-04-03T11:22:36;4.20;;;1.60;;
79377;SDS011;68959;53.132;17.984;2023-04-03T11:25:06;6.40;;;1.60;;
79377;SDS011;68959;53.132;17.984;2023-04-03T11:27:47;3.00;;;1.40;;
79377;SDS011;68959;53.132;17.984;2023-04-03T11:30:19;4.60;;;1.50;;
79377;SDS011;68959;53.132;17.984;2023-04-03T11:33:09;4.20;;;1.80;;
79377;SDS011;68959;53.132;17.984;2023-04-03T11:36:05;3.00;;;1.70;;
79377;SDS011;68959;53.132;17.984;2023-04-03T11:38:37;3.20;;;1.60;;
79377;SDS011;68959;53.132;17.984;2023-04-03T11:41:08;4.40;;;2.00;;
79377;SDS011;68959;53.132;17.984;2023-04-03T11:43:41;7.70;;;1.90;;
79377;SDS011;68959;53.132;17.984;2023-04-03T11:46:22;6.30;;;2.00;;
79377;SDS011;68959;53.132;17.984;2023-04-03T11:52:19;4.70;;;1.70;;
79377;SDS011;68959;53.132;17.984;2023-04-03T12:16:03;6.50;;;1.90;;
79377;SDS011;68959;53.132;17.984;2023-04-03T12:18:39;3.90;;;1.20;;
79377;SDS011;68959;53.132;17.984;2023-04-03T12:21:16;4.70;;;1.70;;
79377;SDS011;68959;53.132;17.984;2023-04-03T12:38:33;2.40;;;1.50;;
79377;SDS011;68959;53.132;17.984;2023-04-03T12:43:56;3.40;;;1.60;;
79377;SDS011;68959;53.132;17.984;2023-04-03T12:46:39;2.10;;;1.50;;
79377;SDS011;68959;53.132;17.984;2023-04-03T12:51:55;3.20;;;1.40;;
79377;SDS011;68959;53.132;17.984;2023-04-03T12:54:23;4.80;;;1.50;;
79377;SDS011;68959;53.132;17.984;2023-04-03T12:59:56;2.60;;;1.50;;
79377;SDS011;68959;53.132;17.984;2023-04-03T13:02:27;7.60;;;1.90;;
79377;SDS011;68959;53.132;17.984;2023-04-03T13:05:04;4.90;;;1.60;;
79377;SDS011;68959;53.132;17.984;2023-04-03T13:07:35;7.10;;;1.90;;
79377;SDS011;68959;53.132;17.984;2023-04-03T13:12:35;4.60;;;1.50;;
79377;SDS011;68959;53.132;17.984;2023-04-03T13:15:13;3.10;;;1.30;;
79377;SDS011;68959;53.132;17.984;2023-04-03T13:17:46;4.20;;;1.60;;
79377;SDS011;68959;53.132;17.984;2023-04-03T13:22:48;4.40;;;2.00;;
79377;SDS011;68959;53.132;17.984;2023-04-03T13:25:19;4.20;;;1.20;;
79377;SDS011;68959;53.132;17.984;2023-04-03T13:27:47;4.50;;;1.60;;
79377;SDS011;68959;53.132;17.984;2023-04-03T13:30:29;3.40;;;1.90;;
79377;SDS011;68959;53.132;17.984;2023-04-03T13:32:59;3.80;;;1.50;;
79377;SDS011;68959;53.132;17.984;2023-04-03T13:35:37;4.40;;;1.90;;
79377;SDS011;68959;53.132;17.984;2023-04-03T13:38:07;4.50;;;1.90;;
79377;SDS011;68959;53.132;17.984;2023-04-03T13:40:56;6.60;;;1.90;;
79377;SDS011;68959;53.132;17.984;2023-04-03T13:43:27;4.80;;;1.80;;
79377;SDS011;68959;53.132;17.984;2023-04-03T13:46:20;10.80;;;4.20;;
79377;SDS011;68959;53.132;17.984;2023-04-03T13:48:53;5.00;;;2.40;;
79377;SDS011;68959;53.132;17.984;2023-04-03T13:51:22;5.70;;;2.70;;
79377;SDS011;68959;53.132;17.984;2023-04-03T14:01:37;3.10;;;1.50;;
79377;SDS011;68959;53.132;17.984;2023-04-03T14:04:13;7.50;;;1.50;;
79377;SDS011;68959;53.132;17.984;2023-04-03T14:06:52;5.80;;;1.70;;
79377;SDS011;68959;53.132;17.984;2023-04-03T14:09:19;9.20;;;2.10;;
79377;SDS011;68959;53.132;17.984;2023-04-03T14:11:48;5.40;;;1.90;;
79377;SDS011;68959;53.132;17.984;2023-04-03T14:14:18;5.70;;;2.50;;
79377;SDS011;68959;53.132;17.984;2023-04-03T14:16:50;4.10;;;1.80;;
79377;SDS011;68959;53.132;17.984;2023-04-03T14:19:26;5.10;;;2.00;;
79377;SDS011;68959;53.132;17.984;2023-04-03T14:21:58;6.00;;;1.80;;
79377;SDS011;68959;53.132;17.984;2023-04-03T14:24:27;6.60;;;1.70;;
79377;SDS011;68959;53.132;17.984;2023-04-03T14:26:54;6.70;;;2.70;;
79377;SDS011;68959;53.132;17.984;2023-04-03T14:29:21;3.40;;;1.80;;
79377;SDS011;68959;53.132;17.984;2023-04-03T14:31:49;2.70;;;1.40;;
79377;SDS011;68959;53.132;17.984;2023-04-03T14:34:16;5.30;;;1.70;;
79377;SDS011;68959;53.132;17.984;2023-04-03T14:36:43;6.20;;;2.00;;
79377;SDS011;68959;53.132;17.984;2023-04-03T14:39:16;4.10;;;1.80;;
79377;SDS011;68959;53.132;17.984;2023-04-03T14:41:44;3.70;;;1.90;;
79377;SDS011;68959;53.132;17.984;2023-04-03T14:44:11;4.30;;;1.80;;
79377;SDS011;68959;53.132;17.984;2023-04-03T14:46:39;5.00;;;2.20;;
79377;SDS011;68959;53.132;17.984;2023-04-03T14:49:15;6.70;;;2.50;;
79377;SDS011;68959;53.132;17.984;2023-04-03T14:51:47;8.60;;;2.10;;
79377;SDS011;68959;53.132;17.984;2023-04-03T14:54:15;4.90;;;1.80;;
79377;SDS011;68959;53.132;17.984;2023-04-03T14:56:45;5.00;;;2.60;;
79377;SDS011;68959;53.132;17.984;2023-04-03T14:59:12;4.70;;;2.20;;
79377;SDS011;68959;53.132;17.984;2023-04-03T15:01:40;6.30;;;2.00;;
79377;SDS011;68959;53.132;17.984;2023-04-03T15:04:11;5.20;;;2.20;;
79377;SDS011;68959;53.132;17.984;2023-04-03T15:06:39;4.20;;;2.00;;
79377;SDS011;68959;53.132;17.984;2023-04-03T15:09:12;5.00;;;1.90;;
79377;SDS011;68959;53.132;17.984;2023-04-03T15:11:49;4.20;;;1.70;;
79377;SDS011;68959;53.132;17.984;2023-04-03T15:14:17;5.10;;;1.80;;
79377;SDS011;68959;53.132;17.984;2023-04-03T15:16:44;5.20;;;2.00;;
79377;SDS011;68959;53.132;17.984;2023-04-03T15:19:11;11.80;;;2.50;;
79377;SDS011;68959;53.132;17.984;2023-04-03T15:21:38;5.30;;;2.50;;
79377;SDS011;68959;53.132;17.984;2023-04-03T15:24:06;7.40;;;2.70;;
79377;SDS011;68959;53.132;17.984;2023-04-03T15:26:33;4.90;;;2.20;;
79377;SDS011;68959;53.132;17.984;2023-04-03T15:29:00;5.30;;;2.10;;
79377;SDS011;68959;53.132;17.984;2023-04-03T15:31:27;3.90;;;2.10;;
79377;SDS011;68959;53.132;17.984;2023-04-03T15:33:53;4.00;;;1.80;;
79377;SDS011;68959;53.132;17.984;2023-04-03T15:36:20;5.70;;;2.00;;
79377;SDS011;68959;53.132;17.984;2023-04-03T15:38:46;3.60;;;1.70;;
79377;SDS011;68959;53.132;17.984;2023-04-03T15:41:13;3.00;;;1.60;;
79377;SDS011;68959;53.132;17.984;2023-04-03T15:43:40;4.90;;;1.90;;
79377;SDS011;68959;53.132;17.984;2023-04-03T15:46:06;4.60;;;1.90;;
79377;SDS011;68959;53.132;17.984;2023-04-03T15:48:34;5.50;;;1.70;;
79377;SDS011;68959;53.132;17.984;2023-04-03T15:51:02;4.20;;;1.60;;
79377;SDS011;68959;53.132;17.984;2023-04-03T15:53:28;4.40;;;1.70;;
79377;SDS011;68959;53.132;17.984;2023-04-03T15:55:55;3.50;;;1.90;;
79377;SDS011;68959;53.132;17.984;2023-04-03T15:58:22;4.60;;;1.50;;
79377;SDS011;68959;53.132;17.984;2023-04-03T16:00:48;4.20;;;1.50;;
79377;SDS011;68959;53.132;17.984;2023-04-03T16:03:16;5.30;;;1.80;;
79377;SDS011;68959;53.132;17.984;2023-04-03T16:05:46;4.60;;;1.70;;
79377;SDS011;68959;53.132;17.984;2023-04-03T16:08:13;4.50;;;1.70;;
79377;SDS011;68959;53.132;17.984;2023-04-03T16:10:40;4.40;;;2.00;;
79377;SDS011;68959;53.132;17.984;2023-04-03T16:13:07;4.70;;;1.80;;
79377;SDS011;68959;53.132;17.984;2023-04-03T16:15:34;2.80;;;1.80;;
79377;SDS011;68959;53.132;17.984;2023-04-03T16:18:01;3.30;;;1.60;;
79377;SDS011;68959;53.132;17.984;2023-04-03T16:20:29;3.90;;;1.70;;
79377;SDS011;68959;53.132;17.984;2023-04-03T16:23:00;3.30;;;1.70;;
79377;SDS011;68959;53.132;17.984;2023-04-03T16:25:27;6.10;;;1.70;;
79377;SDS011;68959;53.132;17.984;2023-04-03T16:27:53;8.40;;;2.30;;
79377;SDS011;68959;53.132;17.984;2023-04-03T16:30:20;5.10;;;2.00;;
79377;SDS011;68959;53.132;17.984;2023-04-03T16:32:47;4.10;;;1.50;;
79377;SDS011;68959;53.132;17.984;2023-04-03T16:35:14;10.90;;;2.40;;